createdAt,value
2022-09-02T00:01:02.498Z,17.71
2022-09-02T00:03:31.301Z,17.47
2022-09-02T00:05:58.515Z,17.57
2022-09-02T00:08:25.458Z,17.46
2022-09-02T00:10:52.949Z,15.33
2022-09-02T00:13:21.783Z,15.97
2022-09-02T00:15:49.171Z,16.38
2022-09-02T00:18:18.224Z,17.39
2022-09-02T00:20:48.455Z,15.93
2022-09-02T00:23:16.968Z,15.90
2022-09-02T00:25:45.051Z,16.51
2022-09-02T00:28:13.521Z,16.23
2022-09-02T00:30:41.272Z,16.32
2022-09-02T00:33:09.074Z,17.06
2022-09-02T00:35:36.550Z,17.37
2022-09-02T00:38:04.363Z,17.07
2022-09-02T00:40:32.183Z,17.14
2022-09-02T00:42:59.338Z,17.47
2022-09-02T00:45:27.006Z,17.89
2022-09-02T00:47:54.016Z,18.01
2022-09-02T00:50:29.501Z,16.36
2022-09-02T00:53:02.276Z,16.91
2022-09-02T00:55:38.085Z,17.09
2022-09-02T00:58:15.263Z,17.20
2022-09-02T01:00:44.763Z,17.66
2022-09-02T01:03:15.752Z,17.94
2022-09-02T01:05:48.341Z,17.55
2022-09-02T01:08:19.777Z,16.67
2022-09-02T01:10:48.485Z,17.39
2022-09-02T01:13:21.038Z,17.90
2022-09-02T01:15:54.204Z,16.53
2022-09-02T01:18:25.688Z,16.97
2022-09-02T01:20:52.736Z,17.75
2022-09-02T01:23:20.153Z,17.78
2022-09-02T01:25:47.568Z,17.17
2022-09-02T01:28:17.706Z,17.30
2022-09-02T01:30:52.090Z,17.56
2022-09-02T01:33:21.340Z,16.78
2022-09-02T01:35:49.704Z,17.19
2022-09-02T01:38:17.532Z,17.12
2022-09-02T01:40:44.500Z,17.15
2022-09-02T01:43:18.450Z,17.34
2022-09-02T01:45:50.541Z,16.01
2022-09-02T01:48:21.566Z,16.00
2022-09-02T01:50:57.520Z,16.25
2022-09-02T01:53:24.528Z,17.04
2022-09-02T01:55:52.636Z,16.91
2022-09-02T01:58:20.303Z,16.38
2022-09-02T02:00:47.949Z,15.16
2022-09-02T02:03:15.469Z,16.31
2022-09-02T02:05:42.686Z,16.93
2022-09-02T02:08:10.386Z,16.28
2022-09-02T02:10:37.571Z,17.48
2022-09-02T02:13:05.315Z,16.61
2022-09-02T02:15:38.567Z,17.21
2022-09-02T02:18:05.446Z,16.68
2022-09-02T02:20:32.510Z,16.25
2022-09-02T02:22:59.317Z,15.46
2022-09-02T02:25:26.509Z,15.75
2022-09-02T02:27:54.575Z,14.35
2022-09-02T02:30:23.855Z,16.82
2022-09-02T02:32:51.292Z,16.47
2022-09-02T02:35:20.435Z,16.77
2022-09-02T02:37:50.381Z,15.57
2022-09-02T02:40:21.712Z,15.72
2022-09-02T02:42:50.426Z,15.81
2022-09-02T02:45:17.267Z,15.69
2022-09-02T02:47:47.160Z,15.34
2022-09-02T02:50:19.206Z,15.81
2022-09-02T02:52:48.886Z,14.90
2022-09-02T02:55:17.331Z,15.95
2022-09-02T02:57:44.651Z,14.97
2022-09-02T03:00:14.019Z,14.97
2022-09-02T03:02:42.825Z,15.55
2022-09-02T03:05:11.323Z,15.07
2022-09-02T03:07:38.222Z,14.76
2022-09-02T03:10:11.294Z,14.62
2022-09-02T03:12:40.497Z,16.05
2022-09-02T03:15:09.412Z,16.00
2022-09-02T03:17:36.372Z,15.28
2022-09-02T03:20:05.365Z,15.02
2022-09-02T03:22:39.021Z,15.57
2022-09-02T03:25:08.968Z,15.01
2022-09-02T03:27:38.465Z,15.88
2022-09-02T03:30:10.246Z,14.19
2022-09-02T03:32:37.753Z,14.27
2022-09-02T03:35:08.218Z,12.91
2022-09-02T03:37:37.319Z,15.19
2022-09-02T03:40:07.662Z,16.24
2022-09-02T03:42:34.648Z,15.23
2022-09-02T03:45:01.835Z,14.91
2022-09-02T03:47:30.132Z,13.85
2022-09-02T03:49:58.021Z,15.50
2022-09-02T03:52:25.739Z,14.60
2022-09-02T03:54:53.061Z,14.09
2022-09-02T03:57:23.185Z,14.38
2022-09-02T03:59:50.208Z,13.32
2022-09-02T04:02:17.180Z,15.02
2022-09-02T04:04:44.478Z,13.95
2022-09-02T04:07:11.565Z,14.39
2022-09-02T04:09:38.454Z,15.46
2022-09-02T04:12:05.651Z,15.33
2022-09-02T04:14:33.282Z,14.20
2022-09-02T04:17:00.151Z,14.90
2022-09-02T04:19:26.970Z,14.10
2022-09-02T04:21:53.778Z,13.65
2022-09-02T04:24:20.782Z,15.39
2022-09-02T04:26:49.666Z,14.63
2022-09-02T04:29:19.060Z,15.43
2022-09-02T04:31:47.222Z,13.91
2022-09-02T04:34:14.078Z,13.96
2022-09-02T04:36:42.180Z,13.67
2022-09-02T04:39:12.052Z,12.18
2022-09-02T04:41:38.941Z,13.51
2022-09-02T04:44:09.062Z,13.41
2022-09-02T04:46:39.432Z,14.37
2022-09-02T04:49:10.939Z,13.96
2022-09-02T04:51:39.747Z,14.76
2022-09-02T04:54:09.153Z,13.93
2022-09-02T04:56:38.512Z,14.41
2022-09-02T04:59:07.594Z,14.13
2022-09-02T05:01:36.729Z,13.99
2022-09-02T05:04:12.999Z,12.31
2022-09-02T05:06:44.823Z,14.13
2022-09-02T05:09:16.873Z,13.97
2022-09-02T05:11:48.015Z,13.26
2022-09-02T05:14:16.595Z,13.73
2022-09-02T05:16:45.697Z,15.01
2022-09-02T05:19:15.637Z,14.50
2022-09-02T05:21:47.145Z,14.15
2022-09-02T05:24:26.403Z,15.86
2022-09-02T05:33:27.940Z,14.82
2022-09-02T05:35:54.827Z,14.76
2022-09-02T05:38:23.152Z,15.65
2022-09-02T05:40:50.419Z,15.23
2022-09-02T05:43:18.118Z,14.53
2022-09-02T05:45:48.332Z,13.74
2022-09-02T05:48:33.774Z,14.48
2022-09-02T05:51:05.810Z,14.68
2022-09-02T05:53:33.550Z,13.53
2022-09-02T05:56:04.846Z,16.01
2022-09-02T05:58:32.354Z,16.77
2022-09-02T06:00:59.272Z,16.85
2022-09-02T06:03:26.122Z,15.85
2022-09-02T06:05:56.086Z,16.41
2022-09-02T06:08:24.306Z,17.67
2022-09-02T06:10:51.798Z,16.56
2022-09-02T06:13:22.827Z,15.40
2022-09-02T06:15:52.680Z,16.59
2022-09-02T06:18:24.090Z,16.69
2022-09-02T06:20:54.478Z,15.15
2022-09-02T06:23:23.332Z,13.63
2022-09-02T06:25:51.809Z,15.35
2022-09-02T06:28:19.579Z,16.11
2022-09-02T06:30:48.741Z,17.12
2022-09-02T06:33:18.279Z,17.11
2022-09-02T06:35:46.575Z,17.37
2022-09-02T06:38:17.635Z,17.15
2022-09-02T06:40:53.417Z,18.64
2022-09-02T06:43:26.605Z,16.26
2022-09-02T06:46:08.484Z,17.82
2022-09-02T06:48:36.990Z,15.43
2022-09-02T06:51:06.365Z,14.98
2022-09-02T06:53:33.210Z,15.02
2022-09-02T06:56:00.207Z,16.56
2022-09-02T06:58:27.005Z,18.19
2022-09-02T07:00:53.948Z,17.83
2022-09-02T07:03:39.499Z,17.04
2022-09-02T07:06:11.237Z,16.44
2022-09-02T07:08:44.666Z,16.98
2022-09-02T07:11:23.767Z,16.69
2022-09-02T07:13:54.368Z,16.01
2022-09-02T07:16:26.916Z,17.97
2022-09-02T07:18:57.648Z,16.36
2022-09-02T07:21:25.650Z,18.49
2022-09-02T07:23:53.128Z,17.89
2022-09-02T07:26:19.956Z,18.34
2022-09-02T07:28:47.343Z,17.28
2022-09-02T07:31:16.404Z,18.86
2022-09-02T07:33:45.624Z,20.58
2022-09-02T07:36:21.551Z,17.64
2022-09-02T07:38:48.928Z,18.67
2022-09-02T07:41:15.802Z,19.23
2022-09-02T07:43:42.674Z,20.37
2022-09-02T07:46:10.402Z,22.45
2022-09-02T07:48:37.625Z,21.79
2022-09-02T07:51:05.795Z,19.66
2022-09-02T07:53:35.191Z,23.53
2022-09-02T07:56:02.411Z,24.04
2022-09-02T07:58:32.341Z,21.34
2022-09-02T08:01:01.884Z,22.36
2022-09-02T08:03:30.741Z,22.38
2022-09-02T08:05:59.010Z,21.27
2022-09-02T08:08:27.615Z,23.98
2022-09-02T08:10:55.317Z,23.76
2022-09-02T08:13:26.851Z,20.07
2022-09-02T08:15:54.837Z,21.53
2022-09-02T08:18:22.873Z,20.55
2022-09-02T08:20:50.219Z,22.83
2022-09-02T08:23:33.624Z,20.27
2022-09-02T08:26:03.882Z,23.44
2022-09-02T08:28:32.300Z,24.82
2022-09-02T08:30:59.854Z,24.11
2022-09-02T08:33:27.137Z,21.07
2022-09-02T08:35:54.915Z,23.24
2022-09-02T08:38:22.424Z,22.09
2022-09-02T08:40:51.194Z,19.25
2022-09-02T08:43:24.834Z,21.08
2022-09-02T08:45:54.432Z,22.59
2022-09-02T08:48:33.038Z,20.70
2022-09-02T08:51:06.365Z,23.33
2022-09-02T08:53:40.926Z,19.86
2022-09-02T08:56:11.974Z,24.97
2022-09-02T08:58:43.840Z,21.11
2022-09-02T09:01:35.362Z,21.64
2022-09-02T09:04:11.165Z,22.76
2022-09-02T09:07:00.746Z,25.63
2022-09-02T09:09:30.507Z,25.39
2022-09-02T09:12:27.239Z,24.12
2022-09-02T09:15:21.919Z,25.29
2022-09-02T09:17:58.184Z,24.07
2022-09-02T09:20:33.769Z,22.92
2022-09-02T09:23:21.870Z,23.19
2022-09-02T09:25:53.534Z,22.29
2022-09-02T09:28:20.353Z,23.15
2022-09-02T09:30:47.131Z,24.86
2022-09-02T09:33:20.185Z,23.22
2022-09-02T09:35:52.817Z,21.99
2022-09-02T09:38:31.253Z,21.16
2022-09-02T09:41:15.581Z,23.01
2022-09-02T09:43:42.695Z,24.01
2022-09-02T09:46:41.703Z,23.99
2022-09-02T09:49:08.914Z,24.77
2022-09-02T09:51:54.862Z,24.87
2022-09-02T09:54:21.667Z,26.59
2022-09-02T09:56:48.467Z,25.76
2022-09-02T09:59:41.570Z,26.26
2022-09-02T10:02:23.754Z,23.66
2022-09-02T10:04:53.522Z,27.25
2022-09-02T10:07:41.908Z,25.11
2022-09-02T10:10:21.577Z,25.55
2022-09-02T10:12:51.278Z,26.47
2022-09-02T10:15:41.055Z,23.06
2022-09-02T10:18:11.337Z,24.63
2022-09-02T10:23:56.946Z,27.64
2022-09-02T10:26:47.056Z,26.42
2022-09-02T10:29:22.682Z,25.48
2022-09-02T10:32:13.576Z,26.03
2022-09-02T10:35:03.554Z,23.45
2022-09-02T10:37:56.442Z,23.09
2022-09-02T10:40:29.962Z,25.57
2022-09-02T10:43:09.819Z,26.87
2022-09-02T10:45:59.745Z,25.00
2022-09-02T10:48:38.513Z,26.02
2022-09-02T10:51:23.862Z,23.43
2022-09-02T10:53:59.976Z,23.16
2022-09-02T10:56:35.004Z,27.02
2022-09-02T10:59:09.563Z,27.74
2022-09-02T11:01:48.984Z,26.95
2022-09-02T11:04:25.226Z,27.58
2022-09-02T11:07:02.998Z,25.34
2022-09-02T11:09:38.478Z,26.18
2022-09-02T11:12:37.851Z,27.86
2022-09-02T11:15:26.121Z,28.41
2022-09-02T11:20:59.598Z,28.85
2022-09-02T11:23:47.240Z,26.61
2022-09-02T11:26:21.324Z,28.71
2022-09-02T11:29:13.029Z,25.89
2022-09-02T11:31:58.735Z,25.23
2022-09-02T11:34:35.420Z,28.34
2022-09-02T11:37:05.931Z,28.32
2022-09-02T11:40:11.556Z,26.08
2022-09-02T11:43:03.213Z,28.02
2022-09-02T11:45:57.630Z,24.93
2022-09-02T11:49:06.026Z,27.58
2022-09-02T11:51:58.708Z,25.49
2022-09-02T11:54:33.663Z,28.63
2022-09-02T11:57:03.966Z,25.25
2022-09-02T11:59:50.470Z,27.14
2022-09-02T12:02:39.051Z,27.18
2022-09-02T12:05:30.806Z,27.85
2022-09-02T12:08:03.114Z,25.06
2022-09-02T12:10:49.375Z,28.11
2022-09-02T12:16:35.653Z,27.01
2022-09-02T12:19:07.378Z,25.73
2022-09-02T12:21:35.831Z,25.99
2022-09-02T12:24:07.799Z,27.23
2022-09-02T12:26:40.587Z,29.41
2022-09-02T12:29:19.536Z,27.45
2022-09-02T12:31:49.553Z,25.68
2022-09-02T12:34:25.626Z,26.80
2022-09-02T12:36:53.426Z,27.51
2022-09-02T12:39:23.282Z,30.14
2022-09-02T12:42:12.595Z,28.59
2022-09-02T12:45:01.367Z,27.76
2022-09-02T12:47:45.566Z,29.39
2022-09-02T12:50:32.564Z,28.96
2022-09-02T12:53:29.817Z,26.78
2022-09-02T12:56:04.504Z,28.43
2022-09-02T12:58:46.375Z,28.72
2022-09-02T13:01:44.521Z,26.01
2022-09-02T13:04:42.503Z,25.25
2022-09-02T13:07:42.093Z,28.46
2022-09-02T13:10:36.513Z,28.12
2022-09-02T13:13:24.447Z,26.68
2022-09-02T13:16:22.150Z,26.45
2022-09-02T13:19:22.381Z,28.56
2022-09-02T13:22:06.318Z,24.32
2022-09-02T13:25:13.244Z,28.01
2022-09-02T13:28:16.811Z,26.57
2022-09-02T13:30:52.546Z,27.80
2022-09-02T13:33:19.862Z,28.81
2022-09-02T13:35:53.779Z,27.56
2022-09-02T13:38:25.020Z,26.04
2022-09-02T13:40:52.080Z,27.87
2022-09-02T13:43:22.715Z,28.18
2022-09-02T13:45:51.333Z,29.47
2022-09-02T13:48:30.987Z,29.08
2022-09-02T13:51:02.147Z,28.72
2022-09-02T13:53:45.841Z,29.40
2022-09-02T13:56:28.389Z,27.53
2022-09-02T13:58:58.669Z,27.79
2022-09-02T14:01:35.169Z,29.50
2022-09-02T14:04:09.907Z,27.89
2022-09-02T14:06:44.377Z,28.53
2022-09-02T14:09:24.298Z,27.61
2022-09-02T14:11:53.047Z,25.90
2022-09-02T14:14:25.267Z,26.73
2022-09-02T14:16:52.774Z,26.70
2022-09-02T14:19:22.254Z,27.98
2022-09-02T14:21:56.317Z,29.03
2022-09-02T14:24:26.637Z,28.64
2022-09-02T14:26:56.291Z,27.75
2022-09-02T14:29:23.978Z,28.08
2022-09-02T14:32:10.855Z,29.36
2022-09-02T14:34:40.596Z,28.66
2022-09-02T14:37:16.173Z,29.16
2022-09-02T14:40:09.769Z,27.81
2022-09-02T14:42:56.638Z,27.64
2022-09-02T14:45:34.760Z,29.11
2022-09-02T14:48:20.753Z,28.89
2022-09-02T14:50:48.215Z,26.18
2022-09-02T14:53:22.086Z,26.50
2022-09-02T14:55:55.034Z,26.51
2022-09-02T14:58:27.404Z,28.17
2022-09-02T15:01:00.307Z,23.76
2022-09-02T15:03:29.079Z,28.20
2022-09-02T15:05:55.906Z,26.54
2022-09-02T15:08:23.312Z,26.14
2022-09-02T15:10:50.758Z,26.96
2022-09-02T15:13:27.478Z,24.83
2022-09-02T15:15:55.617Z,25.06
2022-09-02T15:18:23.729Z,23.82
2022-09-02T15:20:51.318Z,25.14
2022-09-02T15:23:18.533Z,27.82
2022-09-02T15:25:45.505Z,25.35
2022-09-02T15:28:12.938Z,24.25
2022-09-02T15:30:40.166Z,26.08
2022-09-02T15:33:08.472Z,22.07
2022-09-02T15:35:43.483Z,24.90
2022-09-02T15:38:10.299Z,26.21
2022-09-02T15:40:37.674Z,26.18
2022-09-02T15:43:04.622Z,24.32
2022-09-02T15:45:31.609Z,24.93
2022-09-02T15:47:59.680Z,24.78
2022-09-02T15:50:28.185Z,24.45
2022-09-02T15:52:56.090Z,23.37
2022-09-02T15:55:29.218Z,24.04
2022-09-02T15:57:56.995Z,26.10
2022-09-02T16:00:26.756Z,24.94
2022-09-02T16:02:57.151Z,25.00
2022-09-02T16:05:24.389Z,23.27
2022-09-02T16:07:54.840Z,24.65
2022-09-02T16:10:21.842Z,23.70
2022-09-02T16:12:49.006Z,22.68
2022-09-02T16:15:16.352Z,22.86
2022-09-02T16:17:43.215Z,23.43
2022-09-02T16:20:10.391Z,23.97
2022-09-02T16:22:37.726Z,22.36
2022-09-02T16:25:04.841Z,23.18
2022-09-02T16:27:50.398Z,25.80
2022-09-02T16:30:17.520Z,23.34
2022-09-02T16:32:44.550Z,21.95
2022-09-02T16:35:11.401Z,21.91
2022-09-02T16:37:38.172Z,22.02
2022-09-02T16:40:06.018Z,22.70
2022-09-02T16:42:37.451Z,22.48
2022-09-02T16:45:05.633Z,21.86
2022-09-02T16:47:32.454Z,23.02
2022-09-02T16:49:59.248Z,24.95
2022-09-02T16:52:26.023Z,22.75
2022-09-02T16:54:53.070Z,23.35
2022-09-02T16:57:19.832Z,22.24
2022-09-02T16:59:46.718Z,23.15
2022-09-02T17:02:13.803Z,23.00
2022-09-02T17:04:40.611Z,24.01
2022-09-02T17:07:08.039Z,24.00
2022-09-02T17:09:35.418Z,21.88
2022-09-02T17:12:02.495Z,22.28
2022-09-02T17:14:29.309Z,23.01
2022-09-02T17:16:56.164Z,23.28
2022-09-02T17:19:26.169Z,24.27
2022-09-02T17:21:55.282Z,22.64
2022-09-02T17:24:25.458Z,23.57
2022-09-02T17:26:56.702Z,22.50
2022-09-02T17:29:47.945Z,23.00
2022-09-02T17:32:12.865Z,22.91
2022-09-02T17:34:39.783Z,23.34
2022-09-02T17:37:06.580Z,23.29
2022-09-02T17:39:36.617Z,22.54
2022-09-02T17:42:06.380Z,21.88
2022-09-02T17:44:39.963Z,23.06
2022-09-02T17:47:08.587Z,23.14
2022-09-02T17:49:37.038Z,23.04
2022-09-02T17:52:09.299Z,23.52
2022-09-02T17:54:38.793Z,22.40
2022-09-02T17:57:21.558Z,23.37
2022-09-02T17:59:59.256Z,22.64
2022-09-02T18:02:44.093Z,23.64
2022-09-02T18:05:29.686Z,21.67
2022-09-02T18:08:01.856Z,21.93
2022-09-02T18:10:37.674Z,22.00
2022-09-02T18:13:13.731Z,21.34
2022-09-02T18:16:08.687Z,20.66
2022-09-02T18:18:40.790Z,21.84
2022-09-02T18:21:19.455Z,20.64
2022-09-02T18:24:25.978Z,20.11
2022-09-02T18:27:08.814Z,20.41
2022-09-02T18:29:46.280Z,19.89
2022-09-02T18:32:26.329Z,18.90
2022-09-02T18:35:11.234Z,20.26
2022-09-02T18:38:04.383Z,22.41
2022-09-02T18:40:55.959Z,21.30
2022-09-02T18:43:31.505Z,21.43
2022-09-02T18:46:01.367Z,21.72
2022-09-02T18:48:32.995Z,20.42
2022-09-02T18:51:25.137Z,20.06
2022-09-02T18:53:57.813Z,20.03
2022-09-02T18:56:29.367Z,20.74
2022-09-02T18:59:11.407Z,20.27
2022-09-02T19:01:46.393Z,19.42
2022-09-02T19:04:14.789Z,20.10
2022-09-02T19:06:41.841Z,20.70
2022-09-02T19:09:13.242Z,20.16
2022-09-02T19:11:41.253Z,21.26
2022-09-02T19:14:28.200Z,20.88
2022-09-02T19:17:00.160Z,18.63
2022-09-02T19:19:29.878Z,20.27
2022-09-02T19:22:03.711Z,19.25
2022-09-02T19:24:42.838Z,20.29
2022-09-02T19:27:15.205Z,20.77
2022-09-02T19:29:46.276Z,20.22
2022-09-02T19:32:14.130Z,20.55
2022-09-02T19:34:44.784Z,20.61
2022-09-02T19:37:14.400Z,20.28
2022-09-02T19:39:41.323Z,19.35
2022-09-02T19:42:09.721Z,21.52
2022-09-02T19:44:36.543Z,20.08
2022-09-02T19:47:49.868Z,19.82
2022-09-02T19:49:51.226Z,18.23
2022-09-02T19:52:20.999Z,19.94
2022-09-02T19:54:47.901Z,18.56
2022-09-02T19:57:14.710Z,19.54
2022-09-02T19:59:41.548Z,20.82
2022-09-02T20:02:08.909Z,19.10
2022-09-02T20:04:35.870Z,20.02
2022-09-02T20:07:02.671Z,19.68
2022-09-02T20:09:29.643Z,18.34
2022-09-02T20:11:57.011Z,19.95
2022-09-02T20:14:23.948Z,18.62
2022-09-02T20:16:57.263Z,17.82
2022-09-02T20:19:24.089Z,17.45
2022-09-02T20:21:53.861Z,20.48
2022-09-02T20:24:29.606Z,20.28
2022-09-02T20:27:27.261Z,18.34
2022-09-02T20:30:00.577Z,18.87
2022-09-02T20:32:43.937Z,18.98
2022-09-02T20:35:25.453Z,19.24
2022-09-02T20:38:11.834Z,18.11
2022-09-02T20:40:59.913Z,17.92
2022-09-02T20:44:15.062Z,18.39
2022-09-02T20:46:49.479Z,18.20
2022-09-02T20:49:41.695Z,18.85
2022-09-02T20:52:16.153Z,17.50
2022-09-02T20:54:59.146Z,18.56
2022-09-02T20:57:50.881Z,19.23
2022-09-02T21:00:22.985Z,19.85
2022-09-02T21:03:00.945Z,18.07
2022-09-02T21:05:45.753Z,19.51
2022-09-02T21:08:24.809Z,18.53
2022-09-02T21:10:56.523Z,18.44
2022-09-02T21:13:49.001Z,19.76
2022-09-02T21:16:49.505Z,18.19
2022-09-02T21:19:41.785Z,18.84
2022-09-02T21:22:19.674Z,19.27
2022-09-02T21:25:12.430Z,18.30
2022-09-02T21:27:51.075Z,19.03
2022-09-02T21:30:21.487Z,17.55
2022-09-02T21:33:02.021Z,18.27
2022-09-02T21:35:28.879Z,18.40
2022-09-02T21:38:03.715Z,18.27
2022-09-02T21:40:45.476Z,17.74
2022-09-02T21:43:36.607Z,18.33
2022-09-02T21:46:17.964Z,17.02
2022-09-02T21:49:01.486Z,18.84
2022-09-02T21:51:39.139Z,18.97
2022-09-02T21:54:27.943Z,19.09
2022-09-02T21:57:06.980Z,18.51
2022-09-02T21:59:55.858Z,18.70
2022-09-02T22:02:34.551Z,18.84
2022-09-02T22:05:06.472Z,18.30
2022-09-02T22:07:51.148Z,19.19
2022-09-02T22:10:36.359Z,18.48
2022-09-02T22:13:04.491Z,18.10
2022-09-02T22:15:40.450Z,17.02
2022-09-02T22:18:34.493Z,18.08
2022-09-02T22:21:09.017Z,19.44
2022-09-02T22:23:36.401Z,18.42
2022-09-02T22:26:20.098Z,18.78
2022-09-02T22:28:53.129Z,19.02
2022-09-02T22:31:27.200Z,18.33
2022-09-02T22:33:58.753Z,17.65
2022-09-02T22:36:37.011Z,19.19
2022-09-02T22:39:05.502Z,18.85
2022-09-02T22:41:50.943Z,18.85
2022-09-02T22:45:21.142Z,18.17
2022-09-02T22:48:12.429Z,18.97
2022-09-02T22:51:02.271Z,18.97
2022-09-02T22:53:29.680Z,18.80
2022-09-02T22:56:06.153Z,18.42
2022-09-02T22:58:42.477Z,19.31
2022-09-02T23:01:16.114Z,18.66
2022-09-02T23:03:49.270Z,18.02
2022-09-02T23:06:16.080Z,18.19
2022-09-02T23:08:44.312Z,18.86
2022-09-02T23:11:25.287Z,18.80
2022-09-02T23:14:10.766Z,17.47
2022-09-02T23:17:05.234Z,18.75
2022-09-02T23:20:02.868Z,17.75
2022-09-02T23:22:41.798Z,19.31
2022-09-02T23:25:30.262Z,19.08
2022-09-02T23:28:11.819Z,18.51
2022-09-02T23:31:01.263Z,17.16
2022-09-02T23:33:51.004Z,19.05
2022-09-02T23:36:57.691Z,18.68
2022-09-02T23:39:43.130Z,19.03
2022-09-02T23:42:12.278Z,18.16
2022-09-02T23:44:39.090Z,18.05
2022-09-02T23:47:19.409Z,18.60
2022-09-02T23:50:47.178Z,18.94
2022-09-02T23:53:22.430Z,17.57
2022-09-02T23:56:01.129Z,19.12
2022-09-02T23:58:53.362Z,19.03
